Terminal Aerodrome Forecast
Issued by NWS

Home | Current Version | Previous Version | Graphics & Text | Print | Product List | Glossary On
Versions: 1 2 3 4 5 6 7 8 9 10 11 12 13 14 15 16
000
FTUS43 KIWX 091120
TAFSBN
TAF
KSBN 091120Z 0912/1012 25010KT 3SM -SHSN BKN020
      TEMPO 0912/0916 1SM -SHSN OVC020
     FM092200 26009KT P6SM VCSH OVC020=

USA.gov is the U.S. government's official web portal to all federal, state and local government web resources and services.